sensor_id;sensor_type;location;lat;lon;timestamp;P1;durP1;ratioP1;P2;durP2;ratioP2
4885;SDS011;2457;51.788;6.136;2022-10-31T00:00:19;9.13;;;3.80;;
4885;SDS011;2457;51.788;6.136;2022-10-31T00:02:46;11.90;;;4.43;;
4885;SDS011;2457;51.788;6.136;2022-10-31T00:05:13;12.73;;;4.20;;
4885;SDS011;2457;51.788;6.136;2022-10-31T00:07:41;8.30;;;3.80;;
4885;SDS011;2457;51.788;6.136;2022-10-31T00:10:08;14.20;;;4.93;;
4885;SDS011;2457;51.788;6.136;2022-10-31T00:12:35;8.80;;;3.97;;
4885;SDS011;2457;51.788;6.136;2022-10-31T00:15:03;9.23;;;4.30;;
4885;SDS011;2457;51.788;6.136;2022-10-31T00:17:30;10.87;;;4.50;;
4885;SDS011;2457;51.788;6.136;2022-10-31T00:19:57;10.87;;;4.37;;
4885;SDS011;2457;51.788;6.136;2022-10-31T00:22:25;10.83;;;4.80;;
4885;SDS011;2457;51.788;6.136;2022-10-31T00:24:52;7.83;;;4.07;;
4885;SDS011;2457;51.788;6.136;2022-10-31T00:27:19;10.53;;;4.60;;
4885;SDS011;2457;51.788;6.136;2022-10-31T00:29:46;11.17;;;4.50;;
4885;SDS011;2457;51.788;6.136;2022-10-31T00:32:14;8.70;;;3.97;;
4885;SDS011;2457;51.788;6.136;2022-10-31T00:34:41;10.87;;;4.27;;
4885;SDS011;2457;51.788;6.136;2022-10-31T00:37:08;12.77;;;4.53;;
4885;SDS011;2457;51.788;6.136;2022-10-31T00:39:35;16.03;;;5.27;;
4885;SDS011;2457;51.788;6.136;2022-10-31T00:42:03;9.03;;;4.67;;
4885;SDS011;2457;51.788;6.136;2022-10-31T00:44:30;9.93;;;4.43;;
4885;SDS011;2457;51.788;6.136;2022-10-31T00:46:57;9.40;;;4.40;;
4885;SDS011;2457;51.788;6.136;2022-10-31T00:49:25;9.67;;;4.80;;
4885;SDS011;2457;51.788;6.136;2022-10-31T00:51:52;11.03;;;5.03;;
4885;SDS011;2457;51.788;6.136;2022-10-31T00:54:19;11.43;;;4.73;;
4885;SDS011;2457;51.788;6.136;2022-10-31T00:56:46;12.43;;;4.70;;
4885;SDS011;2457;51.788;6.136;2022-10-31T00:59:14;9.63;;;4.73;;
4885;SDS011;2457;51.788;6.136;2022-10-31T01:01:41;11.33;;;4.23;;
4885;SDS011;2457;51.788;6.136;2022-10-31T01:04:08;10.63;;;4.90;;
4885;SDS011;2457;51.788;6.136;2022-10-31T01:06:35;10.47;;;4.53;;
4885;SDS011;2457;51.788;6.136;2022-10-31T01:09:02;8.00;;;3.90;;
4885;SDS011;2457;51.788;6.136;2022-10-31T01:11:30;12.40;;;4.70;;
4885;SDS011;2457;51.788;6.136;2022-10-31T01:13:57;13.60;;;4.90;;
4885;SDS011;2457;51.788;6.136;2022-10-31T01:16:25;9.23;;;4.70;;
4885;SDS011;2457;51.788;6.136;2022-10-31T01:18:52;11.53;;;4.50;;
4885;SDS011;2457;51.788;6.136;2022-10-31T01:21:21;12.27;;;5.33;;
4885;SDS011;2457;51.788;6.136;2022-10-31T01:23:48;10.50;;;4.93;;
4885;SDS011;2457;51.788;6.136;2022-10-31T01:26:17;12.13;;;4.90;;
4885;SDS011;2457;51.788;6.136;2022-10-31T01:31:14;10.27;;;4.30;;
4885;SDS011;2457;51.788;6.136;2022-10-31T01:33:42;12.03;;;5.60;;
4885;SDS011;2457;51.788;6.136;2022-10-31T01:36:20;9.63;;;4.53;;
4885;SDS011;2457;51.788;6.136;2022-10-31T01:38:48;11.07;;;4.57;;
4885;SDS011;2457;51.788;6.136;2022-10-31T01:41:17;11.33;;;4.50;;
4885;SDS011;2457;51.788;6.136;2022-10-31T01:43:46;14.07;;;5.07;;
4885;SDS011;2457;51.788;6.136;2022-10-31T01:46:14;12.00;;;5.20;;
4885;SDS011;2457;51.788;6.136;2022-10-31T01:48:42;9.77;;;5.03;;
4885;SDS011;2457;51.788;6.136;2022-10-31T01:51:10;13.13;;;5.10;;
4885;SDS011;2457;51.788;6.136;2022-10-31T01:53:38;10.90;;;4.57;;
4885;SDS011;2457;51.788;6.136;2022-10-31T01:56:06;13.57;;;5.27;;
4885;SDS011;2457;51.788;6.136;2022-10-31T01:58:34;9.17;;;4.87;;
4885;SDS011;2457;51.788;6.136;2022-10-31T02:01:02;11.53;;;5.40;;
4885;SDS011;2457;51.788;6.136;2022-10-31T02:03:30;21.03;;;6.67;;
4885;SDS011;2457;51.788;6.136;2022-10-31T02:05:57;9.60;;;5.37;;
4885;SDS011;2457;51.788;6.136;2022-10-31T02:08:26;13.57;;;5.73;;
4885;SDS011;2457;51.788;6.136;2022-10-31T02:10:54;12.20;;;5.00;;
4885;SDS011;2457;51.788;6.136;2022-10-31T02:13:21;11.87;;;5.50;;
4885;SDS011;2457;51.788;6.136;2022-10-31T02:15:50;11.90;;;6.17;;
4885;SDS011;2457;51.788;6.136;2022-10-31T02:18:18;11.30;;;5.67;;
4885;SDS011;2457;51.788;6.136;2022-10-31T02:20:55;11.63;;;5.00;;
4885;SDS011;2457;51.788;6.136;2022-10-31T02:29:12;11.97;;;6.17;;
4885;SDS011;2457;51.788;6.136;2022-10-31T02:31:55;10.07;;;5.40;;
4885;SDS011;2457;51.788;6.136;2022-10-31T02:34:22;12.70;;;6.53;;
4885;SDS011;2457;51.788;6.136;2022-10-31T02:37:01;16.60;;;6.20;;
4885;SDS011;2457;51.788;6.136;2022-10-31T02:39:33;11.67;;;5.83;;
4885;SDS011;2457;51.788;6.136;2022-10-31T02:44:36;10.37;;;5.57;;
4885;SDS011;2457;51.788;6.136;2022-10-31T02:47:03;12.20;;;6.10;;
4885;SDS011;2457;51.788;6.136;2022-10-31T02:49:32;10.87;;;6.10;;
4885;SDS011;2457;51.788;6.136;2022-10-31T02:52:00;14.03;;;6.60;;
4885;SDS011;2457;51.788;6.136;2022-10-31T02:54:27;16.50;;;6.57;;
4885;SDS011;2457;51.788;6.136;2022-10-31T02:57:00;12.50;;;6.53;;
4885;SDS011;2457;51.788;6.136;2022-10-31T02:59:24;11.30;;;6.10;;
4885;SDS011;2457;51.788;6.136;2022-10-31T03:04:36;13.60;;;6.40;;
4885;SDS011;2457;51.788;6.136;2022-10-31T03:07:08;12.43;;;6.40;;
4885;SDS011;2457;51.788;6.136;2022-10-31T03:09:43;12.40;;;5.77;;
4885;SDS011;2457;51.788;6.136;2022-10-31T03:12:15;11.13;;;5.83;;
4885;SDS011;2457;51.788;6.136;2022-10-31T03:14:43;13.03;;;6.37;;
4885;SDS011;2457;51.788;6.136;2022-10-31T03:17:33;12.00;;;6.37;;
4885;SDS011;2457;51.788;6.136;2022-10-31T03:19:40;12.73;;;6.60;;
4885;SDS011;2457;51.788;6.136;2022-10-31T03:22:10;15.83;;;7.30;;
4885;SDS011;2457;51.788;6.136;2022-10-31T03:24:37;14.53;;;6.80;;
4885;SDS011;2457;51.788;6.136;2022-10-31T03:27:06;12.47;;;6.60;;
4885;SDS011;2457;51.788;6.136;2022-10-31T03:29:34;15.87;;;7.23;;
4885;SDS011;2457;51.788;6.136;2022-10-31T03:32:05;15.13;;;7.67;;
4885;SDS011;2457;51.788;6.136;2022-10-31T03:34:32;14.93;;;7.00;;
4885;SDS011;2457;51.788;6.136;2022-10-31T03:37:01;15.57;;;7.60;;
4885;SDS011;2457;51.788;6.136;2022-10-31T03:39:29;12.90;;;7.80;;
4885;SDS011;2457;51.788;6.136;2022-10-31T03:42:02;18.13;;;7.30;;
4885;SDS011;2457;51.788;6.136;2022-10-31T03:44:25;13.53;;;7.33;;
4885;SDS011;2457;51.788;6.136;2022-10-31T03:46:53;17.90;;;7.10;;
4885;SDS011;2457;51.788;6.136;2022-10-31T03:49:20;12.73;;;6.70;;
4885;SDS011;2457;51.788;6.136;2022-10-31T03:51:51;12.60;;;6.47;;
4885;SDS011;2457;51.788;6.136;2022-10-31T03:57:00;16.00;;;7.20;;
4885;SDS011;2457;51.788;6.136;2022-10-31T03:59:28;16.97;;;7.67;;
4885;SDS011;2457;51.788;6.136;2022-10-31T04:01:57;13.47;;;7.80;;
4885;SDS011;2457;51.788;6.136;2022-10-31T04:04:24;14.80;;;7.60;;
4885;SDS011;2457;51.788;6.136;2022-10-31T04:06:52;17.10;;;7.47;;
4885;SDS011;2457;51.788;6.136;2022-10-31T04:09:21;14.73;;;7.30;;
4885;SDS011;2457;51.788;6.136;2022-10-31T04:11:55;13.07;;;7.10;;
4885;SDS011;2457;51.788;6.136;2022-10-31T04:14:17;11.83;;;7.60;;
4885;SDS011;2457;51.788;6.136;2022-10-31T04:16:45;15.23;;;7.87;;
4885;SDS011;2457;51.788;6.136;2022-10-31T04:19:12;17.33;;;7.60;;
4885;SDS011;2457;51.788;6.136;2022-10-31T04:21:39;16.90;;;8.00;;
4885;SDS011;2457;51.788;6.136;2022-10-31T04:24:08;16.57;;;8.07;;
4885;SDS011;2457;51.788;6.136;2022-10-31T04:26:36;14.77;;;7.60;;
4885;SDS011;2457;51.788;6.136;2022-10-31T04:29:03;12.97;;;7.77;;
4885;SDS011;2457;51.788;6.136;2022-10-31T04:31:30;12.60;;;7.60;;
4885;SDS011;2457;51.788;6.136;2022-10-31T04:33:58;14.47;;;7.00;;
4885;SDS011;2457;51.788;6.136;2022-10-31T04:36:25;13.27;;;7.50;;
4885;SDS011;2457;51.788;6.136;2022-10-31T04:38:52;14.70;;;7.00;;
4885;SDS011;2457;51.788;6.136;2022-10-31T04:41:19;16.60;;;8.83;;
4885;SDS011;2457;51.788;6.136;2022-10-31T04:43:47;17.97;;;7.20;;
4885;SDS011;2457;51.788;6.136;2022-10-31T04:46:14;14.33;;;7.50;;
4885;SDS011;2457;51.788;6.136;2022-10-31T04:48:41;16.63;;;8.27;;
4885;SDS011;2457;51.788;6.136;2022-10-31T04:51:08;19.30;;;7.67;;
4885;SDS011;2457;51.788;6.136;2022-10-31T04:53:36;16.40;;;7.47;;
4885;SDS011;2457;51.788;6.136;2022-10-31T04:56:03;19.57;;;7.87;;
4885;SDS011;2457;51.788;6.136;2022-10-31T04:58:30;13.33;;;7.73;;
4885;SDS011;2457;51.788;6.136;2022-10-31T05:00:58;14.97;;;7.80;;
4885;SDS011;2457;51.788;6.136;2022-10-31T05:03:25;19.83;;;7.60;;
4885;SDS011;2457;51.788;6.136;2022-10-31T05:05:52;13.27;;;7.40;;
4885;SDS011;2457;51.788;6.136;2022-10-31T05:08:19;12.40;;;6.80;;
4885;SDS011;2457;51.788;6.136;2022-10-31T05:10:47;16.57;;;7.90;;
4885;SDS011;2457;51.788;6.136;2022-10-31T05:13:14;12.20;;;6.87;;
4885;SDS011;2457;51.788;6.136;2022-10-31T05:15:41;14.63;;;7.80;;
4885;SDS011;2457;51.788;6.136;2022-10-31T05:18:08;13.40;;;7.43;;
4885;SDS011;2457;51.788;6.136;2022-10-31T05:20:36;17.57;;;8.43;;
4885;SDS011;2457;51.788;6.136;2022-10-31T05:23:03;13.73;;;7.47;;
4885;SDS011;2457;51.788;6.136;2022-10-31T05:25:30;18.10;;;7.73;;
4885;SDS011;2457;51.788;6.136;2022-10-31T05:27:57;14.50;;;7.10;;
4885;SDS011;2457;51.788;6.136;2022-10-31T05:30:28;21.17;;;7.57;;
4885;SDS011;2457;51.788;6.136;2022-10-31T05:32:56;16.20;;;6.90;;
4885;SDS011;2457;51.788;6.136;2022-10-31T05:35:28;20.03;;;7.70;;
4885;SDS011;2457;51.788;6.136;2022-10-31T05:37:55;12.63;;;7.27;;
4885;SDS011;2457;51.788;6.136;2022-10-31T05:40:24;13.90;;;7.50;;
4885;SDS011;2457;51.788;6.136;2022-10-31T05:42:52;15.37;;;7.07;;
4885;SDS011;2457;51.788;6.136;2022-10-31T05:45:20;13.33;;;7.70;;
4885;SDS011;2457;51.788;6.136;2022-10-31T05:47:58;12.30;;;6.70;;
4885;SDS011;2457;51.788;6.136;2022-10-31T05:50:26;10.97;;;6.40;;
4885;SDS011;2457;51.788;6.136;2022-10-31T05:52:54;18.93;;;8.20;;
4885;SDS011;2457;51.788;6.136;2022-10-31T05:55:22;12.07;;;6.70;;
4885;SDS011;2457;51.788;6.136;2022-10-31T05:57:49;21.10;;;7.63;;
4885;SDS011;2457;51.788;6.136;2022-10-31T06:00:17;15.80;;;8.17;;
4885;SDS011;2457;51.788;6.136;2022-10-31T06:02:44;16.70;;;7.80;;
4885;SDS011;2457;51.788;6.136;2022-10-31T06:05:12;14.53;;;7.73;;
4885;SDS011;2457;51.788;6.136;2022-10-31T06:07:39;21.70;;;7.27;;
4885;SDS011;2457;51.788;6.136;2022-10-31T06:10:07;14.93;;;7.00;;
4885;SDS011;2457;51.788;6.136;2022-10-31T06:12:35;12.80;;;7.10;;
4885;SDS011;2457;51.788;6.136;2022-10-31T06:15:07;17.43;;;7.80;;
4885;SDS011;2457;51.788;6.136;2022-10-31T06:17:34;14.90;;;7.43;;
4885;SDS011;2457;51.788;6.136;2022-10-31T06:20:02;11.73;;;6.30;;
4885;SDS011;2457;51.788;6.136;2022-10-31T06:22:29;16.10;;;7.50;;
4885;SDS011;2457;51.788;6.136;2022-10-31T06:24:57;14.90;;;7.60;;
4885;SDS011;2457;51.788;6.136;2022-10-31T06:27:24;12.50;;;7.07;;
4885;SDS011;2457;51.788;6.136;2022-10-31T06:29:52;12.67;;;6.33;;
4885;SDS011;2457;51.788;6.136;2022-10-31T06:32:19;15.97;;;7.13;;
4885;SDS011;2457;51.788;6.136;2022-10-31T06:34:46;10.57;;;6.60;;
4885;SDS011;2457;51.788;6.136;2022-10-31T06:37:16;13.53;;;6.83;;
4885;SDS011;2457;51.788;6.136;2022-10-31T06:39:43;14.10;;;6.90;;
4885;SDS011;2457;51.788;6.136;2022-10-31T06:42:11;13.20;;;6.67;;
4885;SDS011;2457;51.788;6.136;2022-10-31T06:44:38;10.37;;;6.43;;
4885;SDS011;2457;51.788;6.136;2022-10-31T06:47:05;16.60;;;6.63;;
4885;SDS011;2457;51.788;6.136;2022-10-31T06:49:33;18.13;;;7.57;;
4885;SDS011;2457;51.788;6.136;2022-10-31T06:52:00;16.93;;;6.20;;
4885;SDS011;2457;51.788;6.136;2022-10-31T06:54:27;13.60;;;6.77;;
4885;SDS011;2457;51.788;6.136;2022-10-31T06:56:55;11.63;;;5.87;;
4885;SDS011;2457;51.788;6.136;2022-10-31T06:59:22;11.93;;;6.50;;
4885;SDS011;2457;51.788;6.136;2022-10-31T07:01:50;10.87;;;5.67;;
4885;SDS011;2457;51.788;6.136;2022-10-31T07:04:17;8.67;;;4.70;;
4885;SDS011;2457;51.788;6.136;2022-10-31T07:06:44;14.10;;;6.03;;
4885;SDS011;2457;51.788;6.136;2022-10-31T07:09:12;13.10;;;5.70;;
4885;SDS011;2457;51.788;6.136;2022-10-31T07:11:39;10.60;;;5.90;;
4885;SDS011;2457;51.788;6.136;2022-10-31T07:14:06;11.77;;;6.03;;
4885;SDS011;2457;51.788;6.136;2022-10-31T07:16:33;10.17;;;5.50;;
4885;SDS011;2457;51.788;6.136;2022-10-31T07:19:01;12.37;;;5.90;;
4885;SDS011;2457;51.788;6.136;2022-10-31T07:21:28;10.67;;;6.40;;
4885;SDS011;2457;51.788;6.136;2022-10-31T07:23:55;13.37;;;6.53;;
4885;SDS011;2457;51.788;6.136;2022-10-31T07:26:23;13.33;;;6.10;;
4885;SDS011;2457;51.788;6.136;2022-10-31T07:28:50;12.77;;;6.67;;
4885;SDS011;2457;51.788;6.136;2022-10-31T07:31:17;13.87;;;6.20;;
4885;SDS011;2457;51.788;6.136;2022-10-31T07:33:44;16.40;;;7.00;;
4885;SDS011;2457;51.788;6.136;2022-10-31T07:36:12;11.97;;;7.10;;
4885;SDS011;2457;51.788;6.136;2022-10-31T07:38:39;16.30;;;7.90;;
4885;SDS011;2457;51.788;6.136;2022-10-31T07:41:07;11.33;;;7.07;;
4885;SDS011;2457;51.788;6.136;2022-10-31T07:43:34;13.40;;;7.50;;
4885;SDS011;2457;51.788;6.136;2022-10-31T07:46:02;15.27;;;7.70;;
4885;SDS011;2457;51.788;6.136;2022-10-31T07:48:29;15.40;;;7.77;;
4885;SDS011;2457;51.788;6.136;2022-10-31T07:50:56;16.50;;;8.07;;
4885;SDS011;2457;51.788;6.136;2022-10-31T07:53:23;15.83;;;8.37;;
4885;SDS011;2457;51.788;6.136;2022-10-31T07:55:51;14.80;;;8.43;;
4885;SDS011;2457;51.788;6.136;2022-10-31T07:58:18;13.23;;;7.63;;
4885;SDS011;2457;51.788;6.136;2022-10-31T08:00:46;16.87;;;7.80;;
4885;SDS011;2457;51.788;6.136;2022-10-31T08:03:14;19.77;;;8.73;;
4885;SDS011;2457;51.788;6.136;2022-10-31T08:05:41;16.10;;;8.40;;
4885;SDS011;2457;51.788;6.136;2022-10-31T08:08:11;15.83;;;7.67;;
4885;SDS011;2457;51.788;6.136;2022-10-31T08:10:38;18.43;;;9.40;;
4885;SDS011;2457;51.788;6.136;2022-10-31T08:13:11;13.83;;;8.40;;
4885;SDS011;2457;51.788;6.136;2022-10-31T08:15:35;14.57;;;9.10;;
4885;SDS011;2457;51.788;6.136;2022-10-31T08:18:05;19.50;;;8.60;;
4885;SDS011;2457;51.788;6.136;2022-10-31T08:20:32;16.03;;;8.73;;
4885;SDS011;2457;51.788;6.136;2022-10-31T08:23:00;20.53;;;9.50;;
4885;SDS011;2457;51.788;6.136;2022-10-31T08:25:29;19.17;;;9.43;;
4885;SDS011;2457;51.788;6.136;2022-10-31T08:27:56;16.63;;;9.10;;
4885;SDS011;2457;51.788;6.136;2022-10-31T08:30:25;17.10;;;8.80;;
4885;SDS011;2457;51.788;6.136;2022-10-31T08:32:59;25.13;;;9.53;;
4885;SDS011;2457;51.788;6.136;2022-10-31T08:35:26;27.70;;;9.80;;
4885;SDS011;2457;51.788;6.136;2022-10-31T08:37:54;17.10;;;9.30;;
4885;SDS011;2457;51.788;6.136;2022-10-31T08:40:22;25.30;;;10.23;;
4885;SDS011;2457;51.788;6.136;2022-10-31T08:43:02;20.10;;;8.40;;
4885;SDS011;2457;51.788;6.136;2022-10-31T08:45:31;19.47;;;10.30;;
4885;SDS011;2457;51.788;6.136;2022-10-31T08:47:59;17.83;;;9.70;;
4885;SDS011;2457;51.788;6.136;2022-10-31T08:50:27;16.27;;;9.00;;
4885;SDS011;2457;51.788;6.136;2022-10-31T08:52:59;21.47;;;9.13;;
4885;SDS011;2457;51.788;6.136;2022-10-31T08:55:23;18.63;;;9.70;;
4885;SDS011;2457;51.788;6.136;2022-10-31T08:57:54;22.43;;;8.90;;
4885;SDS011;2457;51.788;6.136;2022-10-31T09:00:19;19.17;;;9.47;;
4885;SDS011;2457;51.788;6.136;2022-10-31T09:02:46;15.20;;;8.10;;
4885;SDS011;2457;51.788;6.136;2022-10-31T09:05:13;13.57;;;7.73;;
4885;SDS011;2457;51.788;6.136;2022-10-31T09:07:41;19.80;;;9.07;;
4885;SDS011;2457;51.788;6.136;2022-10-31T09:10:08;14.50;;;7.80;;
4885;SDS011;2457;51.788;6.136;2022-10-31T09:12:35;16.30;;;8.07;;
4885;SDS011;2457;51.788;6.136;2022-10-31T09:15:03;15.63;;;7.83;;
4885;SDS011;2457;51.788;6.136;2022-10-31T09:17:32;16.60;;;8.43;;
4885;SDS011;2457;51.788;6.136;2022-10-31T09:19:59;17.60;;;8.60;;
4885;SDS011;2457;51.788;6.136;2022-10-31T09:22:26;22.77;;;8.60;;
4885;SDS011;2457;51.788;6.136;2022-10-31T09:24:53;16.20;;;7.87;;
4885;SDS011;2457;51.788;6.136;2022-10-31T09:27:21;15.70;;;7.70;;
4885;SDS011;2457;51.788;6.136;2022-10-31T09:29:48;19.87;;;9.70;;
4885;SDS011;2457;51.788;6.136;2022-10-31T09:32:15;20.10;;;9.07;;
4885;SDS011;2457;51.788;6.136;2022-10-31T09:34:42;18.53;;;9.47;;
4885;SDS011;2457;51.788;6.136;2022-10-31T09:37:10;16.47;;;8.50;;
4885;SDS011;2457;51.788;6.136;2022-10-31T09:39:37;15.20;;;7.90;;
4885;SDS011;2457;51.788;6.136;2022-10-31T09:44:48;21.37;;;9.50;;
4885;SDS011;2457;51.788;6.136;2022-10-31T09:50:04;21.27;;;9.53;;
4885;SDS011;2457;51.788;6.136;2022-10-31T09:52:32;17.57;;;8.90;;
4885;SDS011;2457;51.788;6.136;2022-10-31T09:55:02;15.67;;;8.43;;
4885;SDS011;2457;51.788;6.136;2022-10-31T09:57:34;17.80;;;9.00;;
4885;SDS011;2457;51.788;6.136;2022-10-31T09:59:57;16.17;;;8.10;;
4885;SDS011;2457;51.788;6.136;2022-10-31T10:02:39;16.90;;;8.83;;
4885;SDS011;2457;51.788;6.136;2022-10-31T10:05:10;16.37;;;8.67;;
4885;SDS011;2457;51.788;6.136;2022-10-31T10:07:41;18.17;;;8.43;;
4885;SDS011;2457;51.788;6.136;2022-10-31T10:10:18;24.63;;;8.93;;
4885;SDS011;2457;51.788;6.136;2022-10-31T10:12:48;16.47;;;8.90;;
4885;SDS011;2457;51.788;6.136;2022-10-31T10:15:31;23.70;;;9.20;;
4885;SDS011;2457;51.788;6.136;2022-10-31T10:23:29;19.53;;;9.10;;
4885;SDS011;2457;51.788;6.136;2022-10-31T10:25:54;20.27;;;8.67;;
4885;SDS011;2457;51.788;6.136;2022-10-31T10:28:29;14.57;;;8.70;;
4885;SDS011;2457;51.788;6.136;2022-10-31T10:31:03;17.20;;;8.53;;
4885;SDS011;2457;51.788;6.136;2022-10-31T10:33:31;19.53;;;8.33;;
4885;SDS011;2457;51.788;6.136;2022-10-31T10:35:59;17.83;;;9.20;;
4885;SDS011;2457;51.788;6.136;2022-10-31T10:38:28;17.13;;;8.70;;
4885;SDS011;2457;51.788;6.136;2022-10-31T10:40:56;19.03;;;9.10;;
4885;SDS011;2457;51.788;6.136;2022-10-31T10:43:35;21.90;;;10.00;;
4885;SDS011;2457;51.788;6.136;2022-10-31T10:51:45;22.73;;;9.20;;
4885;SDS011;2457;51.788;6.136;2022-10-31T10:54:21;18.07;;;8.77;;
4885;SDS011;2457;51.788;6.136;2022-10-31T10:59:27;19.50;;;9.37;;
4885;SDS011;2457;51.788;6.136;2022-10-31T11:01:56;18.90;;;9.60;;
4885;SDS011;2457;51.788;6.136;2022-10-31T11:04:26;22.50;;;8.90;;
4885;SDS011;2457;51.788;6.136;2022-10-31T11:07:10;26.23;;;9.10;;
4885;SDS011;2457;51.788;6.136;2022-10-31T11:09:35;23.17;;;10.00;;
4885;SDS011;2457;51.788;6.136;2022-10-31T11:12:15;21.30;;;9.93;;
4885;SDS011;2457;51.788;6.136;2022-10-31T11:14:42;20.73;;;9.90;;
4885;SDS011;2457;51.788;6.136;2022-10-31T11:17:20;20.27;;;10.97;;
4885;SDS011;2457;51.788;6.136;2022-10-31T11:19:46;32.00;;;10.60;;
4885;SDS011;2457;51.788;6.136;2022-10-31T11:22:15;23.50;;;10.20;;
4885;SDS011;2457;51.788;6.136;2022-10-31T11:24:43;19.40;;;10.07;;
4885;SDS011;2457;51.788;6.136;2022-10-31T11:27:15;25.83;;;11.33;;
4885;SDS011;2457;51.788;6.136;2022-10-31T11:29:43;24.47;;;9.03;;
4885;SDS011;2457;51.788;6.136;2022-10-31T11:32:20;26.47;;;10.60;;
4885;SDS011;2457;51.788;6.136;2022-10-31T11:34:49;27.33;;;11.30;;
4885;SDS011;2457;51.788;6.136;2022-10-31T11:37:18;24.30;;;10.70;;
4885;SDS011;2457;51.788;6.136;2022-10-31T11:39:47;25.20;;;11.30;;
4885;SDS011;2457;51.788;6.136;2022-10-31T11:42:22;28.30;;;12.60;;
4885;SDS011;2457;51.788;6.136;2022-10-31T11:44:51;19.80;;;10.83;;
4885;SDS011;2457;51.788;6.136;2022-10-31T11:47:21;25.13;;;10.23;;
4885;SDS011;2457;51.788;6.136;2022-10-31T11:49:47;31.37;;;10.80;;
4885;SDS011;2457;51.788;6.136;2022-10-31T11:52:20;26.00;;;10.53;;
4885;SDS011;2457;51.788;6.136;2022-10-31T11:54:45;24.87;;;10.40;;
4885;SDS011;2457;51.788;6.136;2022-10-31T11:57:29;23.50;;;8.87;;
4885;SDS011;2457;51.788;6.136;2022-10-31T11:59:58;20.93;;;9.40;;
4885;SDS011;2457;51.788;6.136;2022-10-31T12:02:25;32.60;;;10.60;;
4885;SDS011;2457;51.788;6.136;2022-10-31T12:04:55;27.40;;;10.83;;
4885;SDS011;2457;51.788;6.136;2022-10-31T12:07:22;29.97;;;10.50;;
4885;SDS011;2457;51.788;6.136;2022-10-31T12:09:49;21.33;;;10.47;;
4885;SDS011;2457;51.788;6.136;2022-10-31T12:17:30;26.40;;;11.33;;
4885;SDS011;2457;51.788;6.136;2022-10-31T12:22:36;21.23;;;10.03;;
4885;SDS011;2457;51.788;6.136;2022-10-31T12:38:24;26.80;;;10.87;;
4885;SDS011;2457;51.788;6.136;2022-10-31T12:43:28;25.07;;;10.37;;
4885;SDS011;2457;51.788;6.136;2022-10-31T12:48:31;25.47;;;10.70;;
4885;SDS011;2457;51.788;6.136;2022-10-31T12:51:02;23.03;;;10.70;;
4885;SDS011;2457;51.788;6.136;2022-10-31T12:53:31;30.77;;;11.77;;
4885;SDS011;2457;51.788;6.136;2022-10-31T12:56:01;23.53;;;10.50;;
4885;SDS011;2457;51.788;6.136;2022-10-31T12:58:32;21.90;;;10.77;;
4885;SDS011;2457;51.788;6.136;2022-10-31T13:03:38;23.97;;;10.23;;
4885;SDS011;2457;51.788;6.136;2022-10-31T13:06:05;24.17;;;10.97;;
4885;SDS011;2457;51.788;6.136;2022-10-31T13:08:40;38.43;;;11.20;;
4885;SDS011;2457;51.788;6.136;2022-10-31T13:11:16;26.57;;;11.20;;
4885;SDS011;2457;51.788;6.136;2022-10-31T13:16:20;32.13;;;11.70;;
4885;SDS011;2457;51.788;6.136;2022-10-31T13:18:55;28.23;;;11.53;;
4885;SDS011;2457;51.788;6.136;2022-10-31T13:21:30;23.93;;;11.13;;
4885;SDS011;2457;51.788;6.136;2022-10-31T13:23:51;25.80;;;10.53;;
4885;SDS011;2457;51.788;6.136;2022-10-31T13:26:24;25.00;;;11.13;;
4885;SDS011;2457;51.788;6.136;2022-10-31T13:31:25;25.83;;;10.77;;
4885;SDS011;2457;51.788;6.136;2022-10-31T13:33:53;25.23;;;10.83;;
4885;SDS011;2457;51.788;6.136;2022-10-31T13:36:30;27.60;;;12.10;;
4885;SDS011;2457;51.788;6.136;2022-10-31T13:38:54;30.47;;;12.33;;
4885;SDS011;2457;51.788;6.136;2022-10-31T13:41:41;24.83;;;11.87;;
4885;SDS011;2457;51.788;6.136;2022-10-31T13:44:11;28.27;;;11.97;;
4885;SDS011;2457;51.788;6.136;2022-10-31T13:46:38;25.93;;;11.03;;
4885;SDS011;2457;51.788;6.136;2022-10-31T13:49:25;31.77;;;11.97;;
4885;SDS011;2457;51.788;6.136;2022-10-31T13:51:53;32.90;;;12.37;;
4885;SDS011;2457;51.788;6.136;2022-10-31T13:56:52;21.33;;;10.60;;
4885;SDS011;2457;51.788;6.136;2022-10-31T13:59:23;26.13;;;11.83;;
4885;SDS011;2457;51.788;6.136;2022-10-31T14:01:56;24.50;;;11.40;;
4885;SDS011;2457;51.788;6.136;2022-10-31T14:04:26;26.07;;;12.00;;
4885;SDS011;2457;51.788;6.136;2022-10-31T14:06:55;25.97;;;11.53;;
4885;SDS011;2457;51.788;6.136;2022-10-31T14:09:22;27.80;;;11.57;;
4885;SDS011;2457;51.788;6.136;2022-10-31T14:11:50;26.00;;;12.50;;
4885;SDS011;2457;51.788;6.136;2022-10-31T14:14:18;29.83;;;12.10;;
4885;SDS011;2457;51.788;6.136;2022-10-31T14:16:46;29.30;;;12.53;;
4885;SDS011;2457;51.788;6.136;2022-10-31T14:19:16;36.20;;;13.73;;
4885;SDS011;2457;51.788;6.136;2022-10-31T14:21:44;31.33;;;11.97;;
4885;SDS011;2457;51.788;6.136;2022-10-31T14:29:39;32.30;;;12.43;;
4885;SDS011;2457;51.788;6.136;2022-10-31T14:37:14;29.40;;;12.00;;
4885;SDS011;2457;51.788;6.136;2022-10-31T14:39:54;31.27;;;12.00;;
4885;SDS011;2457;51.788;6.136;2022-10-31T14:47:35;22.27;;;11.53;;
4885;SDS011;2457;51.788;6.136;2022-10-31T14:50:04;24.33;;;11.30;;
4885;SDS011;2457;51.788;6.136;2022-10-31T14:52:29;28.20;;;11.87;;
4885;SDS011;2457;51.788;6.136;2022-10-31T14:54:56;23.70;;;12.10;;
4885;SDS011;2457;51.788;6.136;2022-10-31T14:57:26;30.20;;;13.27;;
4885;SDS011;2457;51.788;6.136;2022-10-31T14:59:56;31.90;;;12.47;;
4885;SDS011;2457;51.788;6.136;2022-10-31T15:04:54;23.13;;;11.00;;
4885;SDS011;2457;51.788;6.136;2022-10-31T15:07:23;25.83;;;11.57;;
4885;SDS011;2457;51.788;6.136;2022-10-31T15:09:57;28.97;;;12.70;;
4885;SDS011;2457;51.788;6.136;2022-10-31T15:12:26;25.67;;;11.30;;
4885;SDS011;2457;51.788;6.136;2022-10-31T15:14:53;26.70;;;12.20;;
4885;SDS011;2457;51.788;6.136;2022-10-31T15:17:21;20.80;;;10.10;;
4885;SDS011;2457;51.788;6.136;2022-10-31T15:19:49;26.40;;;11.20;;
4885;SDS011;2457;51.788;6.136;2022-10-31T15:22:17;29.23;;;10.23;;
4885;SDS011;2457;51.788;6.136;2022-10-31T15:24:45;34.43;;;12.20;;
4885;SDS011;2457;51.788;6.136;2022-10-31T15:27:13;20.40;;;10.80;;
4885;SDS011;2457;51.788;6.136;2022-10-31T15:29:48;23.13;;;11.17;;
4885;SDS011;2457;51.788;6.136;2022-10-31T15:32:21;19.83;;;11.17;;
4885;SDS011;2457;51.788;6.136;2022-10-31T15:34:44;28.57;;;11.83;;
4885;SDS011;2457;51.788;6.136;2022-10-31T15:37:12;25.37;;;11.53;;
4885;SDS011;2457;51.788;6.136;2022-10-31T15:39:43;26.30;;;10.33;;
4885;SDS011;2457;51.788;6.136;2022-10-31T15:42:27;22.00;;;10.47;;
4885;SDS011;2457;51.788;6.136;2022-10-31T15:45:00;20.63;;;10.53;;
4885;SDS011;2457;51.788;6.136;2022-10-31T15:47:23;21.80;;;10.40;;
4885;SDS011;2457;51.788;6.136;2022-10-31T15:49:54;28.47;;;10.50;;
4885;SDS011;2457;51.788;6.136;2022-10-31T15:54:52;24.67;;;11.40;;
4885;SDS011;2457;51.788;6.136;2022-10-31T15:57:22;23.67;;;10.13;;
4885;SDS011;2457;51.788;6.136;2022-10-31T15:59:49;23.93;;;10.90;;
4885;SDS011;2457;51.788;6.136;2022-10-31T16:02:21;25.87;;;10.97;;
4885;SDS011;2457;51.788;6.136;2022-10-31T16:04:50;20.57;;;9.97;;
4885;SDS011;2457;51.788;6.136;2022-10-31T16:07:18;22.50;;;10.97;;
4885;SDS011;2457;51.788;6.136;2022-10-31T16:12:21;25.83;;;10.63;;
4885;SDS011;2457;51.788;6.136;2022-10-31T16:14:51;32.30;;;10.90;;
4885;SDS011;2457;51.788;6.136;2022-10-31T16:17:22;23.40;;;9.63;;
4885;SDS011;2457;51.788;6.136;2022-10-31T16:20:03;22.20;;;9.70;;
4885;SDS011;2457;51.788;6.136;2022-10-31T16:22:28;20.77;;;9.37;;
4885;SDS011;2457;51.788;6.136;2022-10-31T16:27:49;26.27;;;9.37;;
4885;SDS011;2457;51.788;6.136;2022-10-31T16:30:28;26.20;;;10.53;;
4885;SDS011;2457;51.788;6.136;2022-10-31T16:32:52;31.67;;;9.07;;
4885;SDS011;2457;51.788;6.136;2022-10-31T16:35:24;20.80;;;9.27;;
4885;SDS011;2457;51.788;6.136;2022-10-31T16:37:52;28.43;;;11.10;;
4885;SDS011;2457;51.788;6.136;2022-10-31T16:40:19;26.77;;;9.97;;
4885;SDS011;2457;51.788;6.136;2022-10-31T16:42:47;22.97;;;9.93;;
4885;SDS011;2457;51.788;6.136;2022-10-31T16:45:23;23.77;;;10.50;;